sensor_id;sensor_type;location;lat;lon;timestamp;P1;durP1;ratioP1;P2;durP2;ratioP2
80910;SDS011;70359;51.420;7.032;2023-07-20T00:00:56;6.9;;;1.2;;
80910;SDS011;70359;51.420;7.032;2023-07-20T00:03:21;6.9;;;1.2;;
80910;SDS011;70359;51.420;7.032;2023-07-20T00:05:50;1.3;;;1.2;;
80910;SDS011;70359;51.420;7.032;2023-07-20T00:08:11;1.3;;;1.2;;
80910;SDS011;70359;51.420;7.032;2023-07-20T00:10:36;1.7;;;1.1;;
80910;SDS011;70359;51.420;7.032;2023-07-20T00:13:01;1.7;;;1.1;;
80910;SDS011;70359;51.420;7.032;2023-07-20T00:15:26;1.2;;;1;;
80910;SDS011;70359;51.420;7.032;2023-07-20T00:17:51;1.2;;;1;;
80910;SDS011;70359;51.420;7.032;2023-07-20T00:20:17;1.5;;;1.2;;
80910;SDS011;70359;51.420;7.032;2023-07-20T00:22:41;1.5;;;1.2;;
80910;SDS011;70359;51.420;7.032;2023-07-20T00:25:06;1.8;;;1.3;;
80910;SDS011;70359;51.420;7.032;2023-07-20T00:27:31;1.8;;;1.3;;
80910;SDS011;70359;51.420;7.032;2023-07-20T00:29:56;1.2;;;1.1;;
80910;SDS011;70359;51.420;7.032;2023-07-20T00:32:21;1.2;;;1.1;;
80910;SDS011;70359;51.420;7.032;2023-07-20T00:34:46;1.6;;;1.5;;
80910;SDS011;70359;51.420;7.032;2023-07-20T00:37:11;1.6;;;1.5;;
80910;SDS011;70359;51.420;7.032;2023-07-20T00:39:36;1.6;;;1.5;;
80910;SDS011;70359;51.420;7.032;2023-07-20T00:42:01;1.3;;;1.2;;
80910;SDS011;70359;51.420;7.032;2023-07-20T00:44:30;1.3;;;1.2;;
80910;SDS011;70359;51.420;7.032;2023-07-20T00:46:51;9;;;1.4;;
80910;SDS011;70359;51.420;7.032;2023-07-20T00:49:16;9;;;1.4;;
80910;SDS011;70359;51.420;7.032;2023-07-20T00:51:41;1.5;;;1.3;;
80910;SDS011;70359;51.420;7.032;2023-07-20T00:54:06;1.5;;;1.3;;
80910;SDS011;70359;51.420;7.032;2023-07-20T00:56:31;1.8;;;1.6;;
80910;SDS011;70359;51.420;7.032;2023-07-20T00:59:00;1.8;;;1.6;;
80910;SDS011;70359;51.420;7.032;2023-07-20T01:01:21;1.6;;;1.5;;
80910;SDS011;70359;51.420;7.032;2023-07-20T01:03:46;1.6;;;1.5;;
80910;SDS011;70359;51.420;7.032;2023-07-20T01:06:18;1.5;;;1.4;;
80910;SDS011;70359;51.420;7.032;2023-07-20T01:08:40;1.5;;;1.4;;
80910;SDS011;70359;51.420;7.032;2023-07-20T01:11:09;1.6;;;1.5;;
80910;SDS011;70359;51.420;7.032;2023-07-20T01:13:27;1.6;;;1.5;;
80910;SDS011;70359;51.420;7.032;2023-07-20T01:15:53;1.5;;;1.4;;
80910;SDS011;70359;51.420;7.032;2023-07-20T01:18:16;1.5;;;1.4;;
80910;SDS011;70359;51.420;7.032;2023-07-20T01:20:45;1.7;;;1.5;;
80910;SDS011;70359;51.420;7.032;2023-07-20T01:23:45;1.7;;;1.5;;
80910;SDS011;70359;51.420;7.032;2023-07-20T01:25:44;1.8;;;1.7;;
80910;SDS011;70359;51.420;7.032;2023-07-20T01:28:10;1.8;;;1.7;;
80910;SDS011;70359;51.420;7.032;2023-07-20T01:30:35;2.6;;;2.1;;
80910;SDS011;70359;51.420;7.032;2023-07-20T01:32:47;2.6;;;2.1;;
80910;SDS011;70359;51.420;7.032;2023-07-20T01:35:11;2.1;;;1.9;;
80910;SDS011;70359;51.420;7.032;2023-07-20T01:37:37;2.1;;;1.9;;
80910;SDS011;70359;51.420;7.032;2023-07-20T01:40:01;1.9;;;1.7;;
80910;SDS011;70359;51.420;7.032;2023-07-20T01:42:30;1.9;;;1.7;;
80910;SDS011;70359;51.420;7.032;2023-07-20T01:44:51;1.7;;;1.6;;
80910;SDS011;70359;51.420;7.032;2023-07-20T01:47:16;1.7;;;1.6;;
80910;SDS011;70359;51.420;7.032;2023-07-20T01:49:41;1.7;;;1.6;;
80910;SDS011;70359;51.420;7.032;2023-07-20T01:52:06;2.6;;;1.8;;
80910;SDS011;70359;51.420;7.032;2023-07-20T01:54:31;2.6;;;1.8;;
80910;SDS011;70359;51.420;7.032;2023-07-20T01:56:56;1.8;;;1.7;;
80910;SDS011;70359;51.420;7.032;2023-07-20T01:59:21;1.8;;;1.7;;
80910;SDS011;70359;51.420;7.032;2023-07-20T02:01:50;1.8;;;1.7;;
80910;SDS011;70359;51.420;7.032;2023-07-20T02:04:11;1.8;;;1.7;;
80910;SDS011;70359;51.420;7.032;2023-07-20T02:06:40;2.4;;;2.2;;
80910;SDS011;70359;51.420;7.032;2023-07-20T02:09:01;2.4;;;2.2;;
80910;SDS011;70359;51.420;7.032;2023-07-20T02:11:30;1.8;;;1.7;;
80910;SDS011;70359;51.420;7.032;2023-07-20T02:13:51;1.8;;;1.7;;
80910;SDS011;70359;51.420;7.032;2023-07-20T02:16:16;2.9;;;1.8;;
80910;SDS011;70359;51.420;7.032;2023-07-20T02:18:41;2.9;;;1.8;;
80910;SDS011;70359;51.420;7.032;2023-07-20T02:21:10;2.3;;;2.1;;
80910;SDS011;70359;51.420;7.032;2023-07-20T02:23:31;2.3;;;2.1;;
80910;SDS011;70359;51.420;7.032;2023-07-20T02:25:56;1.8;;;1.7;;
80910;SDS011;70359;51.420;7.032;2023-07-20T02:28:21;1.8;;;1.7;;
80910;SDS011;70359;51.420;7.032;2023-07-20T02:30:46;2;;;1.8;;
80910;SDS011;70359;51.420;7.032;2023-07-20T02:33:11;2;;;1.8;;
80910;SDS011;70359;51.420;7.032;2023-07-20T02:35:36;5.3;;;2.4;;
80910;SDS011;70359;51.420;7.032;2023-07-20T02:38:01;5.3;;;2.4;;
80910;SDS011;70359;51.420;7.032;2023-07-20T02:40:26;2.9;;;2.7;;
80910;SDS011;70359;51.420;7.032;2023-07-20T02:42:51;2.9;;;2.7;;
80910;SDS011;70359;51.420;7.032;2023-07-20T02:45:17;2.1;;;1.9;;
80910;SDS011;70359;51.420;7.032;2023-07-20T02:47:41;2.1;;;1.9;;
80910;SDS011;70359;51.420;7.032;2023-07-20T02:50:07;2.4;;;2.2;;
80910;SDS011;70359;51.420;7.032;2023-07-20T02:52:31;2.4;;;2.2;;
80910;SDS011;70359;51.420;7.032;2023-07-20T02:54:56;2.7;;;2.4;;
80910;SDS011;70359;51.420;7.032;2023-07-20T02:57:25;2.7;;;2.4;;
80910;SDS011;70359;51.420;7.032;2023-07-20T02:59:46;2.7;;;2.4;;
80910;SDS011;70359;51.420;7.032;2023-07-20T03:02:11;4.1;;;2.7;;
80910;SDS011;70359;51.420;7.032;2023-07-20T03:04:36;4.1;;;2.7;;
80910;SDS011;70359;51.420;7.032;2023-07-20T03:07:01;2.1;;;2;;
80910;SDS011;70359;51.420;7.032;2023-07-20T03:09:26;2.1;;;2;;
80910;SDS011;70359;51.420;7.032;2023-07-20T03:11:51;2.2;;;2;;
80910;SDS011;70359;51.420;7.032;2023-07-20T03:14:16;2.2;;;2;;
80910;SDS011;70359;51.420;7.032;2023-07-20T03:16:41;3.2;;;2.9;;
80910;SDS011;70359;51.420;7.032;2023-07-20T03:19:06;3.2;;;2.9;;
80910;SDS011;70359;51.420;7.032;2023-07-20T03:21:31;2.8;;;2.5;;
80910;SDS011;70359;51.420;7.032;2023-07-20T03:23:56;2.8;;;2.5;;
80910;SDS011;70359;51.420;7.032;2023-07-20T03:26:21;4.3;;;3.2;;
80910;SDS011;70359;51.420;7.032;2023-07-20T03:28:50;4.3;;;3.2;;
80910;SDS011;70359;51.420;7.032;2023-07-20T03:31:11;2.5;;;2.3;;
80910;SDS011;70359;51.420;7.032;2023-07-20T03:33:36;2.5;;;2.3;;
80910;SDS011;70359;51.420;7.032;2023-07-20T03:36:01;3.4;;;2.6;;
80910;SDS011;70359;51.420;7.032;2023-07-20T03:38:27;3.4;;;2.6;;
80910;SDS011;70359;51.420;7.032;2023-07-20T03:40:55;2.9;;;2.6;;
80910;SDS011;70359;51.420;7.032;2023-07-20T03:43:17;2.9;;;2.6;;
80910;SDS011;70359;51.420;7.032;2023-07-20T03:45:41;3.4;;;2.6;;
80910;SDS011;70359;51.420;7.032;2023-07-20T03:48:10;3.4;;;2.6;;
80910;SDS011;70359;51.420;7.032;2023-07-20T03:50:31;2.6;;;2.4;;
80910;SDS011;70359;51.420;7.032;2023-07-20T03:52:56;2.6;;;2.4;;
80910;SDS011;70359;51.420;7.032;2023-07-20T03:55:21;3.6;;;3;;
80910;SDS011;70359;51.420;7.032;2023-07-20T03:57:46;3.6;;;3;;
80910;SDS011;70359;51.420;7.032;2023-07-20T04:07:00;3.3;;;2.9;;
80910;SDS011;70359;51.420;7.032;2023-07-20T04:09:25;3.3;;;2.9;;
80910;SDS011;70359;51.420;7.032;2023-07-20T04:11:50;3.8;;;3.4;;
80910;SDS011;70359;51.420;7.032;2023-07-20T04:14:15;3.8;;;3.4;;
80910;SDS011;70359;51.420;7.032;2023-07-20T04:16:45;3.5;;;3.2;;
80910;SDS011;70359;51.420;7.032;2023-07-20T04:19:09;3.5;;;3.2;;
80910;SDS011;70359;51.420;7.032;2023-07-20T04:21:39;3.5;;;3.2;;
80910;SDS011;70359;51.420;7.032;2023-07-20T04:23:55;3.5;;;3.2;;
80910;SDS011;70359;51.420;7.032;2023-07-20T04:26:20;4.9;;;3.3;;
80910;SDS011;70359;51.420;7.032;2023-07-20T04:28:49;4.9;;;3.3;;
80910;SDS011;70359;51.420;7.032;2023-07-20T04:31:14;3.9;;;3.6;;
80910;SDS011;70359;51.420;7.032;2023-07-20T04:33:35;3.9;;;3.6;;
80910;SDS011;70359;51.420;7.032;2023-07-20T04:36:00;3.8;;;3.5;;
80910;SDS011;70359;51.420;7.032;2023-07-20T04:38:25;3.8;;;3.5;;
80910;SDS011;70359;51.420;7.032;2023-07-20T04:40:50;4.7;;;4.2;;
80910;SDS011;70359;51.420;7.032;2023-07-20T04:43:16;4.7;;;4.2;;
80910;SDS011;70359;51.420;7.032;2023-07-20T04:45:40;7.4;;;4.2;;
80910;SDS011;70359;51.420;7.032;2023-07-20T04:48:10;7.4;;;4.2;;
80910;SDS011;70359;51.420;7.032;2023-07-20T04:50:30;4.7;;;4.2;;
80910;SDS011;70359;51.420;7.032;2023-07-20T04:52:59;4.7;;;4.2;;
80910;SDS011;70359;51.420;7.032;2023-07-20T04:55:20;5.3;;;4.8;;
80910;SDS011;70359;51.420;7.032;2023-07-20T04:57:45;5.3;;;4.8;;
80910;SDS011;70359;51.420;7.032;2023-07-20T05:00:11;4.5;;;4.1;;
80910;SDS011;70359;51.420;7.032;2023-07-20T05:02:35;4.5;;;4.1;;
80910;SDS011;70359;51.420;7.032;2023-07-20T05:05:04;4.5;;;4.1;;
80910;SDS011;70359;51.420;7.032;2023-07-20T05:07:29;7;;;3.7;;
80910;SDS011;70359;51.420;7.032;2023-07-20T05:09:54;7;;;3.7;;
80910;SDS011;70359;51.420;7.032;2023-07-20T05:12:15;5.5;;;4.3;;
80910;SDS011;70359;51.420;7.032;2023-07-20T05:14:44;5.5;;;4.3;;
80910;SDS011;70359;51.420;7.032;2023-07-20T05:17:05;4.3;;;3.9;;
80910;SDS011;70359;51.420;7.032;2023-07-20T05:19:30;4.3;;;3.9;;
80910;SDS011;70359;51.420;7.032;2023-07-20T05:21:55;6.1;;;3.8;;
80910;SDS011;70359;51.420;7.032;2023-07-20T05:24:20;6.1;;;3.8;;
80910;SDS011;70359;51.420;7.032;2023-07-20T05:26:45;5.5;;;4;;
80910;SDS011;70359;51.420;7.032;2023-07-20T05:29:14;5.5;;;4;;
80910;SDS011;70359;51.420;7.032;2023-07-20T05:31:35;3.8;;;3.4;;
80910;SDS011;70359;51.420;7.032;2023-07-20T05:34:00;3.8;;;3.4;;
80910;SDS011;70359;51.420;7.032;2023-07-20T05:36:25;3.3;;;3;;
80910;SDS011;70359;51.420;7.032;2023-07-20T05:38:50;3.3;;;3;;
80910;SDS011;70359;51.420;7.032;2023-07-20T05:41:15;3.7;;;3.1;;
80910;SDS011;70359;51.420;7.032;2023-07-20T05:43:40;3.7;;;3.1;;
80910;SDS011;70359;51.420;7.032;2023-07-20T05:46:05;3.4;;;3;;
80910;SDS011;70359;51.420;7.032;2023-07-20T05:48:30;3.4;;;3;;
80910;SDS011;70359;51.420;7.032;2023-07-20T05:50:59;2.9;;;2.7;;
80910;SDS011;70359;51.420;7.032;2023-07-20T05:53:20;2.9;;;2.7;;
80910;SDS011;70359;51.420;7.032;2023-07-20T05:55:51;3.6;;;3.3;;
80910;SDS011;70359;51.420;7.032;2023-07-20T05:58:14;3.6;;;3.3;;
80910;SDS011;70359;51.420;7.032;2023-07-20T06:00:35;2.7;;;2.5;;
80910;SDS011;70359;51.420;7.032;2023-07-20T06:03:00;2.7;;;2.5;;
80910;SDS011;70359;51.420;7.032;2023-07-20T06:05:29;2.9;;;2.6;;
80910;SDS011;70359;51.420;7.032;2023-07-20T06:07:50;2.9;;;2.6;;
80910;SDS011;70359;51.420;7.032;2023-07-20T06:10:15;2.7;;;2.5;;
80910;SDS011;70359;51.420;7.032;2023-07-20T06:12:44;2.7;;;2.5;;
80910;SDS011;70359;51.420;7.032;2023-07-20T06:15:16;2.7;;;2.5;;
80910;SDS011;70359;51.420;7.032;2023-07-20T06:17:31;2.7;;;2.5;;
80910;SDS011;70359;51.420;7.032;2023-07-20T06:19:55;2.7;;;2.5;;
80910;SDS011;70359;51.420;7.032;2023-07-20T06:22:20;2.7;;;2.5;;
80910;SDS011;70359;51.420;7.032;2023-07-20T06:24:49;2.7;;;2.5;;
80910;SDS011;70359;51.420;7.032;2023-07-20T06:27:10;2.3;;;2.1;;
80910;SDS011;70359;51.420;7.032;2023-07-20T06:29:35;2.3;;;2.1;;
80910;SDS011;70359;51.420;7.032;2023-07-20T06:32:00;2.2;;;2;;
80910;SDS011;70359;51.420;7.032;2023-07-20T06:34:25;2.2;;;2;;
80910;SDS011;70359;51.420;7.032;2023-07-20T06:36:50;3;;;2.8;;
80910;SDS011;70359;51.420;7.032;2023-07-20T06:39:15;3;;;2.8;;
80910;SDS011;70359;51.420;7.032;2023-07-20T06:41:40;2.4;;;2.2;;
80910;SDS011;70359;51.420;7.032;2023-07-20T06:44:05;2.4;;;2.2;;
80910;SDS011;70359;51.420;7.032;2023-07-20T06:46:30;2.5;;;2.3;;
80910;SDS011;70359;51.420;7.032;2023-07-20T06:48:59;2.5;;;2.3;;
80910;SDS011;70359;51.420;7.032;2023-07-20T06:51:20;2.6;;;2.4;;
80910;SDS011;70359;51.420;7.032;2023-07-20T06:53:45;2.6;;;2.4;;
80910;SDS011;70359;51.420;7.032;2023-07-20T06:56:10;3.1;;;2.9;;
80910;SDS011;70359;51.420;7.032;2023-07-20T06:58:35;3.1;;;2.9;;
80910;SDS011;70359;51.420;7.032;2023-07-20T07:01:04;5.1;;;3.7;;
80910;SDS011;70359;51.420;7.032;2023-07-20T07:03:29;5.1;;;3.7;;
80910;SDS011;70359;51.420;7.032;2023-07-20T07:05:54;4.9;;;4.4;;
80910;SDS011;70359;51.420;7.032;2023-07-20T07:08:15;4.9;;;4.4;;
80910;SDS011;70359;51.420;7.032;2023-07-20T07:10:40;4.6;;;4;;
80910;SDS011;70359;51.420;7.032;2023-07-20T07:13:05;4.6;;;4;;
80910;SDS011;70359;51.420;7.032;2023-07-20T07:15:30;4.8;;;4.3;;
80910;SDS011;70359;51.420;7.032;2023-07-20T07:17:55;4.8;;;4.3;;
80910;SDS011;70359;51.420;7.032;2023-07-20T07:20:24;4.1;;;3.8;;
80910;SDS011;70359;51.420;7.032;2023-07-20T07:22:50;4.1;;;3.8;;
80910;SDS011;70359;51.420;7.032;2023-07-20T07:25:11;4.1;;;3.8;;
80910;SDS011;70359;51.420;7.032;2023-07-20T07:27:35;5.1;;;4.4;;
80910;SDS011;70359;51.420;7.032;2023-07-20T07:30:05;5.1;;;4.4;;
80910;SDS011;70359;51.420;7.032;2023-07-20T07:32:25;3;;;2.7;;
80910;SDS011;70359;51.420;7.032;2023-07-20T07:34:50;3;;;2.7;;
80910;SDS011;70359;51.420;7.032;2023-07-20T07:37:15;2.7;;;2.5;;
80910;SDS011;70359;51.420;7.032;2023-07-20T07:39:40;2.7;;;2.5;;
80910;SDS011;70359;51.420;7.032;2023-07-20T07:42:05;3.7;;;3.4;;
80910;SDS011;70359;51.420;7.032;2023-07-20T07:44:30;3.7;;;3.4;;
80910;SDS011;70359;51.420;7.032;2023-07-20T07:46:55;2.9;;;2.7;;
80910;SDS011;70359;51.420;7.032;2023-07-20T07:49:20;2.9;;;2.7;;
80910;SDS011;70359;51.420;7.032;2023-07-20T07:51:45;3.1;;;2.8;;
80910;SDS011;70359;51.420;7.032;2023-07-20T07:54:10;3.1;;;2.8;;
80910;SDS011;70359;51.420;7.032;2023-07-20T07:56:35;1.9;;;1.8;;
80910;SDS011;70359;51.420;7.032;2023-07-20T07:59:00;1.9;;;1.8;;
80910;SDS011;70359;51.420;7.032;2023-07-20T08:01:25;2.1;;;1.9;;
80910;SDS011;70359;51.420;7.032;2023-07-20T08:03:50;2.1;;;1.9;;
80910;SDS011;70359;51.420;7.032;2023-07-20T08:06:15;1.6;;;1.5;;
80910;SDS011;70359;51.420;7.032;2023-07-20T08:08:40;1.6;;;1.5;;
80910;SDS011;70359;51.420;7.032;2023-07-20T08:11:05;2.1;;;1.3;;
80910;SDS011;70359;51.420;7.032;2023-07-20T08:13:31;2.1;;;1.3;;
80910;SDS011;70359;51.420;7.032;2023-07-20T08:15:55;1.4;;;1.3;;
80910;SDS011;70359;51.420;7.032;2023-07-20T08:18:20;1.4;;;1.3;;
80910;SDS011;70359;51.420;7.032;2023-07-20T08:20:47;1;;;1;;
80910;SDS011;70359;51.420;7.032;2023-07-20T08:23:14;1;;;1;;
80910;SDS011;70359;51.420;7.032;2023-07-20T08:25:39;1.3;;;1.2;;
80910;SDS011;70359;51.420;7.032;2023-07-20T08:28:04;1.3;;;1.2;;
80910;SDS011;70359;51.420;7.032;2023-07-20T08:30:37;0.8;;;0.8;;
80910;SDS011;70359;51.420;7.032;2023-07-20T08:32:50;0.8;;;0.8;;
80910;SDS011;70359;51.420;7.032;2023-07-20T08:35:16;0.8;;;0.8;;
80910;SDS011;70359;51.420;7.032;2023-07-20T08:37:40;1.2;;;1.1;;
80910;SDS011;70359;51.420;7.032;2023-07-20T08:40:06;1.2;;;1.1;;
80910;SDS011;70359;51.420;7.032;2023-07-20T08:42:31;1.6;;;1.5;;
80910;SDS011;70359;51.420;7.032;2023-07-20T08:44:56;1.6;;;1.5;;
80910;SDS011;70359;51.420;7.032;2023-07-20T08:47:20;1.6;;;1.5;;
80910;SDS011;70359;51.420;7.032;2023-07-20T08:49:48;1.6;;;1.5;;
80910;SDS011;70359;51.420;7.032;2023-07-20T08:52:11;2.8;;;2.1;;
80910;SDS011;70359;51.420;7.032;2023-07-20T08:54:36;2.8;;;2.1;;
80910;SDS011;70359;51.420;7.032;2023-07-20T08:57:02;1.7;;;1.6;;
80910;SDS011;70359;51.420;7.032;2023-07-20T08:59:26;1.7;;;1.6;;
80910;SDS011;70359;51.420;7.032;2023-07-20T09:01:51;1.4;;;1.3;;
80910;SDS011;70359;51.420;7.032;2023-07-20T09:04:16;1.4;;;1.3;;
80910;SDS011;70359;51.420;7.032;2023-07-20T09:06:44;1.3;;;1.2;;
80910;SDS011;70359;51.420;7.032;2023-07-20T09:09:06;1.3;;;1.2;;
80910;SDS011;70359;51.420;7.032;2023-07-20T09:11:34;1.2;;;1.1;;
80910;SDS011;70359;51.420;7.032;2023-07-20T09:14:06;1.2;;;1.1;;
80910;SDS011;70359;51.420;7.032;2023-07-20T09:16:21;0.8;;;0.8;;
80910;SDS011;70359;51.420;7.032;2023-07-20T09:18:47;0.8;;;0.8;;
80910;SDS011;70359;51.420;7.032;2023-07-20T09:21:14;4.4;;;1.4;;
80910;SDS011;70359;51.420;7.032;2023-07-20T09:23:37;4.4;;;1.4;;
80910;SDS011;70359;51.420;7.032;2023-07-20T09:26:01;1.3;;;0.7;;
80910;SDS011;70359;51.420;7.032;2023-07-20T09:28:26;1.3;;;0.7;;
80910;SDS011;70359;51.420;7.032;2023-07-20T09:30:51;0.6;;;0.6;;
80910;SDS011;70359;51.420;7.032;2023-07-20T09:33:22;0.6;;;0.6;;
80910;SDS011;70359;51.420;7.032;2023-07-20T09:35:47;0.5;;;0.5;;
80910;SDS011;70359;51.420;7.032;2023-07-20T09:38:06;0.5;;;0.5;;
80910;SDS011;70359;51.420;7.032;2023-07-20T09:40:45;0.5;;;0.4;;
80910;SDS011;70359;51.420;7.032;2023-07-20T09:42:56;0.5;;;0.4;;
80910;SDS011;70359;51.420;7.032;2023-07-20T09:45:25;0.5;;;0.4;;
80910;SDS011;70359;51.420;7.032;2023-07-20T09:47:46;1;;;0.5;;
80910;SDS011;70359;51.420;7.032;2023-07-20T09:50:11;1;;;0.5;;
80910;SDS011;70359;51.420;7.032;2023-07-20T09:52:41;0.6;;;0.5;;
80910;SDS011;70359;51.420;7.032;2023-07-20T09:55:02;0.6;;;0.5;;
80910;SDS011;70359;51.420;7.032;2023-07-20T09:57:26;1.2;;;0.4;;
80910;SDS011;70359;51.420;7.032;2023-07-20T09:59:51;1.2;;;0.4;;
80910;SDS011;70359;51.420;7.032;2023-07-20T10:02:20;0.5;;;0.4;;
80910;SDS011;70359;51.420;7.032;2023-07-20T10:04:45;0.5;;;0.4;;
80910;SDS011;70359;51.420;7.032;2023-07-20T10:07:10;0.6;;;0.6;;
80910;SDS011;70359;51.420;7.032;2023-07-20T10:09:31;0.6;;;0.6;;
80910;SDS011;70359;51.420;7.032;2023-07-20T10:12:01;0.4;;;0.4;;
80910;SDS011;70359;51.420;7.032;2023-07-20T10:14:21;0.4;;;0.4;;
80910;SDS011;70359;51.420;7.032;2023-07-20T10:16:50;0.4;;;0.4;;
80910;SDS011;70359;51.420;7.032;2023-07-20T10:19:13;0.4;;;0.4;;
80910;SDS011;70359;51.420;7.032;2023-07-20T10:21:40;0.5;;;0.4;;
80910;SDS011;70359;51.420;7.032;2023-07-20T10:24:01;0.5;;;0.4;;
80910;SDS011;70359;51.420;7.032;2023-07-20T10:26:26;1;;;0.5;;
80910;SDS011;70359;51.420;7.032;2023-07-20T10:28:55;1;;;0.5;;
80910;SDS011;70359;51.420;7.032;2023-07-20T10:31:22;0.8;;;0.6;;
80910;SDS011;70359;51.420;7.032;2023-07-20T10:33:41;0.8;;;0.6;;
80910;SDS011;70359;51.420;7.032;2023-07-20T10:36:06;0.5;;;0.5;;
80910;SDS011;70359;51.420;7.032;2023-07-20T10:38:53;0.5;;;0.5;;
80910;SDS011;70359;51.420;7.032;2023-07-20T10:40:59;0.4;;;0.4;;
80910;SDS011;70359;51.420;7.032;2023-07-20T10:43:21;0.4;;;0.4;;
80910;SDS011;70359;51.420;7.032;2023-07-20T10:45:48;0.5;;;0.5;;
80910;SDS011;70359;51.420;7.032;2023-07-20T10:48:17;0.5;;;0.5;;
80910;SDS011;70359;51.420;7.032;2023-07-20T10:50:38;0.6;;;0.6;;
80910;SDS011;70359;51.420;7.032;2023-07-20T10:53:14;0.6;;;0.6;;
80910;SDS011;70359;51.420;7.032;2023-07-20T10:55:30;0.6;;;0.6;;
80910;SDS011;70359;51.420;7.032;2023-07-20T10:58:12;0.4;;;0.4;;
80910;SDS011;70359;51.420;7.032;2023-07-20T11:00:20;0.4;;;0.4;;
80910;SDS011;70359;51.420;7.032;2023-07-20T11:02:48;1.3;;;1.2;;
80910;SDS011;70359;51.420;7.032;2023-07-20T11:05:06;1.3;;;1.2;;
80910;SDS011;70359;51.420;7.032;2023-07-20T11:07:40;1.1;;;1;;
80910;SDS011;70359;51.420;7.032;2023-07-20T11:10:16;1.1;;;1;;
80910;SDS011;70359;51.420;7.032;2023-07-20T11:12:21;0.9;;;0.9;;
80910;SDS011;70359;51.420;7.032;2023-07-20T11:14:53;0.9;;;0.9;;
80910;SDS011;70359;51.420;7.032;2023-07-20T11:17:15;1.4;;;1;;
80910;SDS011;70359;51.420;7.032;2023-07-20T11:19:36;1.4;;;1;;
80910;SDS011;70359;51.420;7.032;2023-07-20T11:22:08;0.8;;;0.8;;
80910;SDS011;70359;51.420;7.032;2023-07-20T11:24:26;0.8;;;0.8;;
80910;SDS011;70359;51.420;7.032;2023-07-20T11:26:53;1.2;;;1.1;;
80910;SDS011;70359;51.420;7.032;2023-07-20T11:29:17;1.2;;;1.1;;
80910;SDS011;70359;51.420;7.032;2023-07-20T11:31:42;1.4;;;1.2;;
80910;SDS011;70359;51.420;7.032;2023-07-20T11:34:07;1.4;;;1.2;;
80910;SDS011;70359;51.420;7.032;2023-07-20T11:36:31;1;;;1;;
80910;SDS011;70359;51.420;7.032;2023-07-20T11:38:56;1;;;1;;
80910;SDS011;70359;51.420;7.032;2023-07-20T11:41:21;1.1;;;1;;
80910;SDS011;70359;51.420;7.032;2023-07-20T11:43:47;1.1;;;1;;
80910;SDS011;70359;51.420;7.032;2023-07-20T11:46:11;1.2;;;1.1;;
80910;SDS011;70359;51.420;7.032;2023-07-20T11:48:40;1.2;;;1.1;;
80910;SDS011;70359;51.420;7.032;2023-07-20T11:51:01;1.1;;;1;;
80910;SDS011;70359;51.420;7.032;2023-07-20T11:53:30;1.1;;;1;;
80910;SDS011;70359;51.420;7.032;2023-07-20T11:55:52;0.7;;;0.7;;
80910;SDS011;70359;51.420;7.032;2023-07-20T11:58:16;0.7;;;0.7;;
80910;SDS011;70359;51.420;7.032;2023-07-20T12:00:44;1.1;;;1;;
80910;SDS011;70359;51.420;7.032;2023-07-20T12:03:06;1.1;;;1;;
80910;SDS011;70359;51.420;7.032;2023-07-20T12:05:31;1.1;;;1;;
80910;SDS011;70359;51.420;7.032;2023-07-20T12:07:56;1.2;;;1.1;;
80910;SDS011;70359;51.420;7.032;2023-07-20T12:10:24;1.2;;;1.1;;
80910;SDS011;70359;51.420;7.032;2023-07-20T12:12:46;0.7;;;0.7;;
80910;SDS011;70359;51.420;7.032;2023-07-20T12:15:21;0.7;;;0.7;;
80910;SDS011;70359;51.420;7.032;2023-07-20T12:17:41;1.4;;;1.1;;
80910;SDS011;70359;51.420;7.032;2023-07-20T12:20:01;1.4;;;1.1;;
80910;SDS011;70359;51.420;7.032;2023-07-20T12:22:26;1.3;;;1.1;;
80910;SDS011;70359;51.420;7.032;2023-07-20T12:24:51;1.3;;;1.1;;
80910;SDS011;70359;51.420;7.032;2023-07-20T12:27:17;0.8;;;0.8;;
80910;SDS011;70359;51.420;7.032;2023-07-20T12:29:41;0.8;;;0.8;;
80910;SDS011;70359;51.420;7.032;2023-07-20T12:32:06;0.8;;;0.8;;
80910;SDS011;70359;51.420;7.032;2023-07-20T12:34:31;0.8;;;0.8;;
80910;SDS011;70359;51.420;7.032;2023-07-20T12:36:56;1.5;;;1;;
80910;SDS011;70359;51.420;7.032;2023-07-20T12:39:21;1.5;;;1;;
80910;SDS011;70359;51.420;7.032;2023-07-20T12:41:46;0.8;;;0.8;;
80910;SDS011;70359;51.420;7.032;2023-07-20T12:44:11;0.8;;;0.8;;
80910;SDS011;70359;51.420;7.032;2023-07-20T12:46:40;0.9;;;0.8;;
80910;SDS011;70359;51.420;7.032;2023-07-20T12:49:01;0.9;;;0.8;;
80910;SDS011;70359;51.420;7.032;2023-07-20T12:51:26;0.8;;;0.8;;
80910;SDS011;70359;51.420;7.032;2023-07-20T12:53:51;0.8;;;0.8;;
80910;SDS011;70359;51.420;7.032;2023-07-20T12:56:20;1.8;;;0.8;;
80910;SDS011;70359;51.420;7.032;2023-07-20T12:58:41;1.8;;;0.8;;
80910;SDS011;70359;51.420;7.032;2023-07-20T13:01:06;0.7;;;0.7;;
80910;SDS011;70359;51.420;7.032;2023-07-20T13:03:31;0.7;;;0.7;;
80910;SDS011;70359;51.420;7.032;2023-07-20T13:05:56;0.8;;;0.8;;
80910;SDS011;70359;51.420;7.032;2023-07-20T13:08:21;0.8;;;0.8;;
80910;SDS011;70359;51.420;7.032;2023-07-20T13:10:50;0.8;;;0.8;;
80910;SDS011;70359;51.420;7.032;2023-07-20T13:13:11;0.7;;;0.6;;
80910;SDS011;70359;51.420;7.032;2023-07-20T13:15:43;0.7;;;0.6;;
80910;SDS011;70359;51.420;7.032;2023-07-20T13:18:01;0.6;;;0.6;;
80910;SDS011;70359;51.420;7.032;2023-07-20T13:20:26;0.6;;;0.6;;
80910;SDS011;70359;51.420;7.032;2023-07-20T13:22:55;0.7;;;0.7;;
80910;SDS011;70359;51.420;7.032;2023-07-20T13:25:16;0.7;;;0.7;;
80910;SDS011;70359;51.420;7.032;2023-07-20T13:27:45;0.4;;;0.4;;
80910;SDS011;70359;51.420;7.032;2023-07-20T13:30:11;0.4;;;0.4;;
80910;SDS011;70359;51.420;7.032;2023-07-20T13:32:35;0.9;;;0.6;;
80910;SDS011;70359;51.420;7.032;2023-07-20T13:35:00;0.9;;;0.6;;
80910;SDS011;70359;51.420;7.032;2023-07-20T13:37:25;0.8;;;0.7;;
80910;SDS011;70359;51.420;7.032;2023-07-20T13:39:46;0.8;;;0.7;;
80910;SDS011;70359;51.420;7.032;2023-07-20T13:42:11;0.8;;;0.7;;
80910;SDS011;70359;51.420;7.032;2023-07-20T13:44:36;0.8;;;0.7;;
80910;SDS011;70359;51.420;7.032;2023-07-20T13:47:01;0.5;;;0.5;;
80910;SDS011;70359;51.420;7.032;2023-07-20T13:49:30;0.5;;;0.5;;
80910;SDS011;70359;51.420;7.032;2023-07-20T13:51:55;0.4;;;0.4;;
80910;SDS011;70359;51.420;7.032;2023-07-20T13:54:16;0.4;;;0.4;;
80910;SDS011;70359;51.420;7.032;2023-07-20T13:56:41;1;;;0.8;;
80910;SDS011;70359;51.420;7.032;2023-07-20T13:59:06;1;;;0.8;;
80910;SDS011;70359;51.420;7.032;2023-07-20T14:01:31;1.1;;;0.8;;
80910;SDS011;70359;51.420;7.032;2023-07-20T14:03:56;1.1;;;0.8;;
80910;SDS011;70359;51.420;7.032;2023-07-20T14:06:21;0.5;;;0.5;;
80910;SDS011;70359;51.420;7.032;2023-07-20T14:08:46;0.5;;;0.5;;
80910;SDS011;70359;51.420;7.032;2023-07-20T14:11:15;0.4;;;0.4;;
80910;SDS011;70359;51.420;7.032;2023-07-20T14:13:36;0.4;;;0.4;;
80910;SDS011;70359;51.420;7.032;2023-07-20T14:16:05;0.4;;;0.4;;
80910;SDS011;70359;51.420;7.032;2023-07-20T14:18:26;0.4;;;0.4;;
80910;SDS011;70359;51.420;7.032;2023-07-20T14:20:51;0.4;;;0.4;;
80910;SDS011;70359;51.420;7.032;2023-07-20T14:23:16;0.9;;;0.8;;
80910;SDS011;70359;51.420;7.032;2023-07-20T14:25:41;0.9;;;0.8;;
80910;SDS011;70359;51.420;7.032;2023-07-20T14:28:07;0.9;;;0.7;;
80910;SDS011;70359;51.420;7.032;2023-07-20T14:30:31;0.9;;;0.7;;
80910;SDS011;70359;51.420;7.032;2023-07-20T14:32:56;0.5;;;0.4;;
80910;SDS011;70359;51.420;7.032;2023-07-20T14:35:21;0.5;;;0.4;;
80910;SDS011;70359;51.420;7.032;2023-07-20T14:37:46;0.7;;;0.6;;
80910;SDS011;70359;51.420;7.032;2023-07-20T14:40:12;0.7;;;0.6;;
80910;SDS011;70359;51.420;7.032;2023-07-20T14:42:36;1.1;;;0.8;;
80910;SDS011;70359;51.420;7.032;2023-07-20T14:45:05;1.1;;;0.8;;
80910;SDS011;70359;51.420;7.032;2023-07-20T14:47:30;0.5;;;0.4;;
80910;SDS011;70359;51.420;7.032;2023-07-20T14:49:55;0.5;;;0.4;;
80910;SDS011;70359;51.420;7.032;2023-07-20T14:52:16;0.4;;;0.4;;
80910;SDS011;70359;51.420;7.032;2023-07-20T14:54:41;0.4;;;0.4;;
80910;SDS011;70359;51.420;7.032;2023-07-20T14:57:06;0.6;;;0.6;;
80910;SDS011;70359;51.420;7.032;2023-07-20T14:59:31;0.6;;;0.6;;
80910;SDS011;70359;51.420;7.032;2023-07-20T15:01:56;1;;;0.7;;
80910;SDS011;70359;51.420;7.032;2023-07-20T15:04:25;1;;;0.7;;
80910;SDS011;70359;51.420;7.032;2023-07-20T15:06:47;0.7;;;0.6;;
80910;SDS011;70359;51.420;7.032;2023-07-20T15:09:15;0.7;;;0.6;;
80910;SDS011;70359;51.420;7.032;2023-07-20T15:11:36;0.5;;;0.5;;